createdAt,value
2023-07-18T00:00:17.906Z,2.00
2023-07-18T00:03:04.898Z,1.70
2023-07-18T00:05:33.811Z,1.60
2023-07-18T00:08:00.368Z,2.60
2023-07-18T00:10:26.830Z,2.00
2023-07-18T00:12:53.395Z,1.90
2023-07-18T00:15:19.903Z,2.10
2023-07-18T00:17:46.464Z,2.10
2023-07-18T00:20:17.935Z,1.90
2023-07-18T00:22:51.076Z,1.90
2023-07-18T00:25:19.597Z,1.60
2023-07-18T00:27:46.473Z,2.30
2023-07-18T00:30:13.334Z,1.90
2023-07-18T00:32:41.886Z,2.30
2023-07-18T00:35:09.022Z,2.10
2023-07-18T00:37:35.639Z,1.70
2023-07-18T00:40:03.208Z,1.70
2023-07-18T00:42:29.728Z,2.20
2023-07-18T00:44:56.164Z,1.70
2023-07-18T00:47:22.814Z,1.90
2023-07-18T00:49:49.517Z,2.10
2023-07-18T00:52:15.972Z,1.80
2023-07-18T00:54:43.542Z,2.10
2023-07-18T00:57:10.319Z,2.20
2023-07-18T00:59:37.705Z,2.20
2023-07-18T01:02:06.310Z,1.80
2023-07-18T01:04:32.903Z,2.00
2023-07-18T01:07:02.465Z,1.90
2023-07-18T01:09:29.301Z,2.40
2023-07-18T01:11:55.892Z,2.00
2023-07-18T01:14:25.423Z,2.50
2023-07-18T01:16:54.808Z,1.90
2023-07-18T01:19:22.286Z,2.40
2023-07-18T01:21:48.809Z,2.60
2023-07-18T01:24:15.288Z,2.30
2023-07-18T01:26:41.793Z,2.60
2023-07-18T01:29:09.044Z,2.20
2023-07-18T01:31:35.491Z,2.20
2023-07-18T01:34:02.174Z,2.10
2023-07-18T01:36:29.037Z,2.10
2023-07-18T01:38:55.994Z,2.20
2023-07-18T01:41:22.672Z,2.00
2023-07-18T01:43:49.004Z,2.10
2023-07-18T01:46:15.616Z,2.30
2023-07-18T01:48:42.106Z,2.20
2023-07-18T01:51:08.741Z,2.20
2023-07-18T01:53:35.124Z,2.10
2023-07-18T01:56:01.530Z,2.10
2023-07-18T01:58:27.972Z,1.90
2023-07-18T02:00:54.630Z,2.40
2023-07-18T02:03:21.505Z,1.80
2023-07-18T02:05:48.046Z,1.90
2023-07-18T02:08:14.463Z,1.70
2023-07-18T02:10:41.076Z,1.50
2023-07-18T02:13:07.814Z,1.70
2023-07-18T02:15:34.577Z,1.60
2023-07-18T02:18:01.083Z,1.60
2023-07-18T02:20:27.734Z,1.50
2023-07-18T02:22:56.536Z,1.50
2023-07-18T02:25:23.199Z,1.90
2023-07-18T02:27:49.916Z,1.50
2023-07-18T02:30:17.397Z,1.20
2023-07-18T02:32:44.395Z,1.30
2023-07-18T02:35:11.845Z,1.40
2023-07-18T02:37:38.419Z,1.30
2023-07-18T02:40:11.912Z,1.60
2023-07-18T02:42:38.846Z,1.40
2023-07-18T02:45:07.277Z,1.60
2023-07-18T02:47:33.728Z,1.70
2023-07-18T02:50:00.498Z,1.40
2023-07-18T02:52:27.055Z,1.60
2023-07-18T02:54:54.324Z,1.60
2023-07-18T02:57:20.987Z,1.40
2023-07-18T02:59:47.380Z,1.10
2023-07-18T03:02:13.954Z,1.40
2023-07-18T03:04:40.486Z,1.20
2023-07-18T03:07:07.675Z,1.40
2023-07-18T03:09:35.435Z,2.10
2023-07-18T03:12:02.226Z,1.60
2023-07-18T03:14:29.713Z,1.50
2023-07-18T03:16:59.225Z,1.80
2023-07-18T03:19:25.697Z,2.00
2023-07-18T03:21:52.134Z,1.50
2023-07-18T03:24:19.584Z,2.10
2023-07-18T03:26:46.187Z,1.30
2023-07-18T03:29:12.663Z,1.90
2023-07-18T03:31:40.099Z,1.70
2023-07-18T03:34:06.572Z,1.60
2023-07-18T03:36:33.265Z,1.50
2023-07-18T03:38:59.713Z,1.70
2023-07-18T03:41:26.229Z,1.50
2023-07-18T03:43:53.067Z,2.10
2023-07-18T03:46:19.884Z,1.40
2023-07-18T03:48:46.380Z,1.50
2023-07-18T03:51:14.529Z,1.70
2023-07-18T03:53:41.455Z,1.50
2023-07-18T03:56:08.161Z,1.60
2023-07-18T03:58:34.986Z,1.30
2023-07-18T04:01:08.556Z,1.20
2023-07-18T04:03:35.714Z,1.30
2023-07-18T04:06:02.657Z,1.50
2023-07-18T04:08:29.256Z,1.70
2023-07-18T04:10:56.880Z,1.70
2023-07-18T04:13:23.602Z,1.70
2023-07-18T04:15:50.037Z,1.60
2023-07-18T04:18:16.831Z,1.30
2023-07-18T04:20:43.245Z,1.30
2023-07-18T04:23:09.944Z,1.80
2023-07-18T04:25:53.497Z,1.30
2023-07-18T04:28:19.873Z,1.70
2023-07-18T04:30:46.322Z,1.90
2023-07-18T04:33:13.350Z,1.50
2023-07-18T04:35:40.370Z,1.00
2023-07-18T04:38:06.909Z,1.40
2023-07-18T04:40:33.719Z,1.50
2023-07-18T04:43:00.334Z,1.50
2023-07-18T04:45:26.818Z,1.40
2023-07-18T04:47:53.321Z,1.20
2023-07-18T04:50:19.806Z,1.10
2023-07-18T04:52:46.190Z,1.50
2023-07-18T04:55:12.712Z,1.20
2023-07-18T04:57:39.465Z,1.50
2023-07-18T05:00:06.203Z,1.10
2023-07-18T05:02:32.644Z,1.30
2023-07-18T05:04:59.464Z,1.50
2023-07-18T05:07:25.870Z,1.40
2023-07-18T05:09:52.291Z,1.50
2023-07-18T05:12:19.500Z,1.70
2023-07-18T05:14:45.894Z,1.60
2023-07-18T05:17:12.462Z,1.60
2023-07-18T05:19:38.813Z,1.40
2023-07-18T05:22:05.371Z,1.40
2023-07-18T05:24:31.971Z,1.30
2023-07-18T05:26:58.377Z,1.20
2023-07-18T05:29:24.854Z,1.60
2023-07-18T05:31:51.674Z,1.20
2023-07-18T05:34:18.298Z,1.20
2023-07-18T05:36:44.705Z,2.00
2023-07-18T05:39:11.591Z,1.60
2023-07-18T05:41:38.154Z,1.50
2023-07-18T05:44:04.706Z,1.20
2023-07-18T05:46:31.275Z,1.30
2023-07-18T05:48:58.077Z,1.40
2023-07-18T05:51:24.410Z,1.20
2023-07-18T05:53:50.834Z,1.50
2023-07-18T05:56:17.303Z,1.40
2023-07-18T05:58:43.845Z,1.70
2023-07-18T06:01:13.059Z,1.10
2023-07-18T06:03:39.583Z,1.30
2023-07-18T06:06:07.590Z,1.40
2023-07-18T06:08:34.205Z,1.40
2023-07-18T06:11:00.726Z,1.10
2023-07-18T06:13:27.425Z,1.70
2023-07-18T06:15:53.948Z,1.40
2023-07-18T06:18:21.754Z,1.60
2023-07-18T06:20:48.538Z,2.00
2023-07-18T06:23:15.087Z,1.40
2023-07-18T06:25:41.943Z,1.30
2023-07-18T06:28:08.620Z,1.70
2023-07-18T06:30:35.227Z,1.30
2023-07-18T06:33:01.717Z,1.60
2023-07-18T06:35:28.207Z,1.70
2023-07-18T06:37:54.648Z,1.50
2023-07-18T06:40:21.048Z,1.40
2023-07-18T06:42:47.506Z,1.40
2023-07-18T06:45:15.061Z,1.60
2023-07-18T06:47:41.762Z,1.20
2023-07-18T06:50:08.349Z,1.70
2023-07-18T06:52:36.817Z,1.60
2023-07-18T06:55:04.415Z,1.50
2023-07-18T06:57:30.973Z,1.30
2023-07-18T06:59:57.389Z,1.30
2023-07-18T07:02:23.823Z,1.40
2023-07-18T07:04:50.346Z,1.40
2023-07-18T07:07:17.067Z,1.10
2023-07-18T07:09:43.618Z,1.50
2023-07-18T07:12:13.812Z,1.50
2023-07-18T07:14:45.612Z,1.20
2023-07-18T07:17:12.599Z,1.30
2023-07-18T07:19:40.076Z,1.30
2023-07-18T07:22:06.754Z,1.90
2023-07-18T07:24:33.469Z,1.30
2023-07-18T07:26:59.870Z,1.30
2023-07-18T07:29:26.790Z,1.30
2023-07-18T07:31:53.444Z,1.00
2023-07-18T07:34:20.167Z,1.50
2023-07-18T07:36:46.662Z,1.40
2023-07-18T07:39:20.814Z,1.40
2023-07-18T07:41:48.027Z,1.30
2023-07-18T07:44:14.436Z,1.30
2023-07-18T07:46:40.944Z,1.40
2023-07-18T07:49:07.450Z,1.40
2023-07-18T07:51:34.149Z,1.30
2023-07-18T07:54:00.561Z,1.40
2023-07-18T07:56:26.892Z,1.30
2023-07-18T07:59:09.340Z,1.90
2023-07-18T08:01:37.894Z,1.20
2023-07-18T08:04:04.443Z,1.30
2023-07-18T08:06:30.900Z,1.20
2023-07-18T08:08:57.446Z,1.40
2023-07-18T08:11:23.903Z,1.60
2023-07-18T08:13:51.034Z,1.50
2023-07-18T08:16:17.606Z,1.00
2023-07-18T08:18:44.006Z,1.20
2023-07-18T08:21:10.635Z,1.40
2023-07-18T08:23:37.234Z,1.30
2023-07-18T08:26:04.036Z,1.40
2023-07-18T08:28:30.588Z,1.40
2023-07-18T08:30:56.967Z,1.50
2023-07-18T08:33:24.783Z,1.20
2023-07-18T08:35:52.094Z,1.50
2023-07-18T08:38:18.699Z,1.50
2023-07-18T08:40:45.230Z,1.50
2023-07-18T08:43:14.835Z,1.30
2023-07-18T08:45:41.865Z,1.20
2023-07-18T08:48:09.092Z,1.20
2023-07-18T08:50:36.324Z,1.10
2023-07-18T08:53:05.644Z,1.30
2023-07-18T08:55:32.156Z,1.40
2023-07-18T08:57:59.748Z,1.20
2023-07-18T09:00:26.195Z,1.10
2023-07-18T09:02:52.664Z,1.20
2023-07-18T09:05:31.951Z,1.20
2023-07-18T09:07:59.338Z,1.80
2023-07-18T09:10:26.029Z,1.20
2023-07-18T09:12:53.119Z,1.30
2023-07-18T09:15:20.494Z,1.20
2023-07-18T09:17:57.179Z,1.10
2023-07-18T09:20:25.118Z,1.30
2023-07-18T09:22:57.238Z,1.10
2023-07-18T09:25:24.614Z,1.00
2023-07-18T09:27:51.648Z,0.90
2023-07-18T09:30:22.464Z,0.90
2023-07-18T09:32:49.829Z,0.90
2023-07-18T09:35:16.673Z,1.10
2023-07-18T09:37:47.190Z,1.30
2023-07-18T09:40:17.775Z,1.30
2023-07-18T09:42:45.674Z,1.20
2023-07-18T09:45:14.893Z,0.90
2023-07-18T09:47:44.909Z,0.80
2023-07-18T09:50:14.838Z,1.10
2023-07-18T09:52:46.268Z,1.10
2023-07-18T09:55:13.737Z,1.10
2023-07-18T09:57:41.756Z,1.10
2023-07-18T10:00:11.705Z,1.00
2023-07-18T10:02:41.534Z,1.20
2023-07-18T10:05:14.828Z,1.20
2023-07-18T10:07:42.052Z,1.00
2023-07-18T10:10:09.608Z,0.90
2023-07-18T10:12:56.261Z,1.40
2023-07-18T10:15:23.207Z,1.00
2023-07-18T10:17:50.411Z,0.90
2023-07-18T10:20:22.664Z,0.70
2023-07-18T10:22:50.310Z,0.70
2023-07-18T10:25:20.157Z,0.80
2023-07-18T10:27:49.084Z,1.00
2023-07-18T10:30:19.887Z,1.20
2023-07-18T10:32:56.545Z,1.10
2023-07-18T10:35:25.421Z,1.30
2023-07-18T10:37:53.228Z,0.90
2023-07-18T10:40:37.756Z,1.20
2023-07-18T10:43:05.248Z,0.80
2023-07-18T10:45:39.265Z,0.90
2023-07-18T10:48:23.724Z,0.90
2023-07-18T10:50:50.955Z,0.90
2023-07-18T10:53:21.650Z,0.90
2023-07-18T10:55:54.311Z,0.90
2023-07-18T10:58:21.411Z,1.00
2023-07-18T11:00:49.119Z,1.30
2023-07-18T11:03:21.687Z,0.80
2023-07-18T11:05:51.984Z,0.90
2023-07-18T11:08:28.846Z,0.90
2023-07-18T11:11:05.652Z,1.00
2023-07-18T11:13:34.234Z,1.00
2023-07-18T11:16:02.196Z,1.00
2023-07-18T11:18:35.483Z,0.80
2023-07-18T11:21:03.465Z,0.90
2023-07-18T11:23:30.871Z,0.80
2023-07-18T11:25:57.529Z,0.80
2023-07-18T11:28:33.710Z,0.80
2023-07-18T11:31:00.483Z,0.70
2023-07-18T11:33:31.940Z,0.70
2023-07-18T11:35:58.466Z,1.00
2023-07-18T11:38:28.287Z,0.80
2023-07-18T11:40:54.789Z,0.70
2023-07-18T11:43:42.631Z,0.50
2023-07-18T11:46:09.642Z,0.60
2023-07-18T11:48:59.368Z,0.70
2023-07-18T11:51:34.715Z,1.10
2023-07-18T11:54:04.613Z,0.90
2023-07-18T11:56:31.446Z,1.00
2023-07-18T11:58:58.233Z,0.70
2023-07-18T12:01:24.807Z,0.60
2023-07-18T12:03:52.207Z,0.90
2023-07-18T12:06:19.343Z,0.70
2023-07-18T12:08:46.388Z,0.80
2023-07-18T12:11:12.851Z,0.60
2023-07-18T12:13:39.313Z,0.70
2023-07-18T12:16:05.862Z,0.90
2023-07-18T12:18:32.355Z,0.80
2023-07-18T12:20:58.936Z,0.70
2023-07-18T12:23:25.848Z,1.00
2023-07-18T12:25:52.736Z,0.70
2023-07-18T12:28:19.333Z,0.90
2023-07-18T12:30:45.814Z,0.90
2023-07-18T12:33:13.047Z,0.80
2023-07-18T12:35:39.569Z,0.60
2023-07-18T12:38:07.034Z,0.70
2023-07-18T12:40:33.902Z,1.00
2023-07-18T12:43:00.438Z,0.80
2023-07-18T12:45:26.913Z,0.90
2023-07-18T12:47:53.379Z,1.10
2023-07-18T12:50:19.901Z,0.70
2023-07-18T12:52:48.668Z,0.90
2023-07-18T12:55:15.199Z,0.70
2023-07-18T12:57:41.737Z,1.00
2023-07-18T13:00:10.220Z,0.90
2023-07-18T13:02:36.818Z,0.70
2023-07-18T13:05:04.160Z,0.90
2023-07-18T13:07:30.752Z,0.70
2023-07-18T13:09:58.156Z,0.80
2023-07-18T13:12:24.635Z,1.00
2023-07-18T13:14:51.162Z,0.70
2023-07-18T13:17:17.806Z,0.70
2023-07-18T13:19:44.276Z,0.70
2023-07-18T13:22:12.831Z,0.70
2023-07-18T13:24:40.746Z,0.90
2023-07-18T13:27:07.706Z,0.90
2023-07-18T13:29:34.475Z,1.00
2023-07-18T13:32:01.054Z,0.80
2023-07-18T13:34:27.566Z,0.80
2023-07-18T13:36:54.072Z,0.80
2023-07-18T13:39:21.081Z,0.80
2023-07-18T13:41:47.724Z,1.00
2023-07-18T13:44:14.873Z,0.80
2023-07-18T13:46:41.388Z,0.70
2023-07-18T13:49:07.802Z,0.90
2023-07-18T13:51:34.256Z,0.60
2023-07-18T13:54:00.735Z,1.00
2023-07-18T13:56:27.311Z,0.80
2023-07-18T13:58:53.913Z,1.00
2023-07-18T14:01:20.612Z,0.80
2023-07-18T14:03:47.248Z,0.90
2023-07-18T14:06:13.732Z,0.80
2023-07-18T14:08:40.083Z,0.80
2023-07-18T14:11:06.526Z,1.10
2023-07-18T14:13:33.057Z,1.10
2023-07-18T14:15:59.682Z,0.90
2023-07-18T14:18:26.497Z,0.90
2023-07-18T14:20:52.948Z,0.90
2023-07-18T14:23:19.685Z,1.20
2023-07-18T14:25:47.651Z,1.00
2023-07-18T14:28:15.396Z,0.70
2023-07-18T14:30:41.789Z,1.00
2023-07-18T14:33:09.034Z,0.80
2023-07-18T14:35:39.365Z,0.90
2023-07-18T14:38:06.365Z,1.00
2023-07-18T14:40:32.791Z,0.90
2023-07-18T14:42:59.352Z,0.70
2023-07-18T14:45:25.945Z,0.80
2023-07-18T14:47:52.636Z,1.10
2023-07-18T14:50:19.146Z,0.60
2023-07-18T14:52:46.056Z,1.10
2023-07-18T14:55:12.625Z,0.90
2023-07-18T14:57:39.125Z,0.80
2023-07-18T15:00:06.013Z,0.70
2023-07-18T15:02:32.628Z,0.90
2023-07-18T15:04:59.103Z,0.90
2023-07-18T15:07:27.173Z,1.00
2023-07-18T15:09:53.645Z,1.50
2023-07-18T15:12:20.174Z,0.70
2023-07-18T15:14:46.864Z,1.20
2023-07-18T15:17:13.344Z,0.80
2023-07-18T15:19:39.799Z,1.10
2023-07-18T15:22:06.215Z,1.30
2023-07-18T15:24:32.732Z,0.90
2023-07-18T15:27:02.678Z,1.00
2023-07-18T15:29:38.910Z,0.80
2023-07-18T15:32:08.494Z,1.10
2023-07-18T15:34:36.945Z,0.80
2023-07-18T15:37:03.758Z,1.00
2023-07-18T15:39:30.360Z,0.90
2023-07-18T15:41:56.792Z,0.80
2023-07-18T15:44:23.141Z,1.00
2023-07-18T15:46:51.411Z,1.00
2023-07-18T15:49:18.653Z,1.50
2023-07-18T15:51:45.029Z,1.40
2023-07-18T15:54:11.818Z,0.90
2023-07-18T15:56:40.282Z,0.90
2023-07-18T15:59:06.763Z,1.30
2023-07-18T16:01:33.259Z,1.00
2023-07-18T16:03:59.807Z,1.00
2023-07-18T16:06:26.355Z,1.00
2023-07-18T16:08:52.960Z,1.10
2023-07-18T16:11:19.607Z,1.10
2023-07-18T16:13:46.677Z,1.10
2023-07-18T16:16:14.355Z,1.30
2023-07-18T16:18:56.972Z,1.20
2023-07-18T16:21:24.715Z,1.20
2023-07-18T16:23:51.934Z,1.20
2023-07-18T16:26:19.264Z,0.90
2023-07-18T16:28:46.654Z,0.80
2023-07-18T16:31:13.205Z,1.20
2023-07-18T16:33:40.198Z,1.60
2023-07-18T16:36:07.141Z,1.50
2023-07-18T16:38:36.615Z,1.10
2023-07-18T16:41:03.479Z,1.00
2023-07-18T16:43:30.800Z,0.90
2023-07-18T16:45:57.582Z,0.90
2023-07-18T16:48:24.810Z,0.70
2023-07-18T16:50:51.495Z,1.10
2023-07-18T16:53:18.475Z,1.00
2023-07-18T16:55:44.910Z,1.00
2023-07-18T16:58:11.358Z,0.90
2023-07-18T17:00:39.098Z,1.40
2023-07-18T17:03:05.848Z,1.10
2023-07-18T17:05:32.471Z,1.10
2023-07-18T17:07:58.940Z,1.40
2023-07-18T17:10:26.087Z,1.00
2023-07-18T17:12:52.455Z,1.20
2023-07-18T17:15:18.776Z,1.10
2023-07-18T17:17:45.385Z,1.10
2023-07-18T17:20:14.429Z,0.90
2023-07-18T17:22:41.253Z,1.60
2023-07-18T17:25:07.987Z,1.00
2023-07-18T17:27:34.454Z,1.20
2023-07-18T17:30:02.480Z,1.10
2023-07-18T17:32:29.545Z,1.00
2023-07-18T17:34:56.094Z,0.90
2023-07-18T17:37:22.649Z,1.30
2023-07-18T17:39:51.046Z,1.10
2023-07-18T17:42:17.568Z,1.10
2023-07-18T17:44:44.064Z,1.20
2023-07-18T17:47:10.634Z,1.10
2023-07-18T17:49:37.210Z,1.40
2023-07-18T17:52:03.851Z,1.80
2023-07-18T17:54:30.423Z,2.40
2023-07-18T17:56:57.344Z,1.10
2023-07-18T17:59:23.758Z,1.70
2023-07-18T18:01:50.249Z,2.30
2023-07-18T18:04:17.688Z,1.60
2023-07-18T18:06:44.528Z,4.20
2023-07-18T18:09:11.298Z,1.30
2023-07-18T18:11:38.318Z,2.70
2023-07-18T18:14:05.221Z,1.30
2023-07-18T18:16:31.779Z,1.20
2023-07-18T18:18:58.462Z,2.30
2023-07-18T18:21:26.111Z,2.20
2023-07-18T18:23:52.511Z,1.20
2023-07-18T18:26:18.890Z,1.60
2023-07-18T18:28:45.694Z,1.30
2023-07-18T18:31:12.431Z,1.40
2023-07-18T18:33:38.957Z,1.50
2023-07-18T18:36:05.620Z,1.40
2023-07-18T18:38:32.399Z,1.50
2023-07-18T18:40:58.949Z,1.00
2023-07-18T18:43:25.709Z,1.60
2023-07-18T18:45:52.555Z,1.90
2023-07-18T18:48:18.994Z,1.20
2023-07-18T18:50:45.624Z,1.30
2023-07-18T18:53:12.064Z,1.40
2023-07-18T18:55:38.673Z,1.50
2023-07-18T18:58:05.280Z,1.70
2023-07-18T19:00:31.652Z,2.10
2023-07-18T19:02:59.485Z,2.30
2023-07-18T19:05:26.732Z,2.20
2023-07-18T19:07:53.434Z,2.30
2023-07-18T19:10:20.226Z,1.60
2023-07-18T19:12:47.100Z,2.20
2023-07-18T19:15:13.607Z,2.50
2023-07-18T19:17:40.241Z,2.60
2023-07-18T19:20:07.591Z,2.50
2023-07-18T19:22:34.136Z,2.80
2023-07-18T19:25:00.576Z,2.10
2023-07-18T19:27:27.128Z,3.20
2023-07-18T19:29:53.595Z,3.50
2023-07-18T19:32:20.087Z,3.20
2023-07-18T19:34:46.839Z,3.20
2023-07-18T19:37:13.821Z,3.40
2023-07-18T19:39:40.377Z,3.10
2023-07-18T19:42:09.612Z,2.50
2023-07-18T19:44:36.668Z,3.70
2023-07-18T19:47:05.158Z,3.40
2023-07-18T19:49:31.730Z,3.50
2023-07-18T19:51:58.561Z,3.50
2023-07-18T19:54:25.387Z,3.90
2023-07-18T19:56:53.006Z,4.80
2023-07-18T19:59:21.213Z,5.10
2023-07-18T20:01:47.970Z,3.60
2023-07-18T20:04:14.855Z,4.20
2023-07-18T20:06:41.588Z,3.60
2023-07-18T20:09:08.470Z,3.60
2023-07-18T20:11:34.970Z,3.20
2023-07-18T20:14:02.095Z,3.20
2023-07-18T20:16:30.552Z,3.50
2023-07-18T20:19:02.170Z,3.10
2023-07-18T20:21:30.383Z,2.20
2023-07-18T20:23:57.396Z,2.50
2023-07-18T20:26:24.067Z,2.50
2023-07-18T20:28:50.855Z,2.40
2023-07-18T20:31:24.202Z,2.60
2023-07-18T20:33:53.320Z,2.30
2023-07-18T20:36:19.796Z,3.10
2023-07-18T20:38:46.871Z,2.10
2023-07-18T20:41:13.411Z,2.40
2023-07-18T20:43:40.973Z,2.10
2023-07-18T20:46:08.393Z,3.60
2023-07-18T20:48:35.386Z,2.90
2023-07-18T20:51:01.793Z,2.40
2023-07-18T20:53:29.006Z,2.70
2023-07-18T20:55:56.260Z,2.50
2023-07-18T20:58:22.801Z,3.20
2023-07-18T21:00:49.453Z,2.50
2023-07-18T21:03:18.689Z,2.70
2023-07-18T21:05:47.975Z,2.10
2023-07-18T21:08:16.504Z,2.40
2023-07-18T21:10:42.961Z,2.30
2023-07-18T21:13:09.642Z,2.20
2023-07-18T21:15:36.347Z,2.70
2023-07-18T21:18:03.660Z,2.80
2023-07-18T21:20:30.252Z,2.50
2023-07-18T21:22:56.771Z,3.20
2023-07-18T21:25:23.260Z,3.20
2023-07-18T21:27:49.670Z,2.90
2023-07-18T21:30:16.189Z,3.40
2023-07-18T21:32:42.738Z,2.80
2023-07-18T21:35:09.459Z,3.30
2023-07-18T21:37:36.045Z,3.00
2023-07-18T21:40:03.378Z,2.90
2023-07-18T21:42:29.820Z,3.00
2023-07-18T21:44:56.343Z,3.90
2023-07-18T21:47:22.849Z,3.30
2023-07-18T21:49:50.230Z,3.30
2023-07-18T21:52:16.670Z,3.20
2023-07-18T21:54:43.451Z,3.50
2023-07-18T21:57:09.864Z,2.90
2023-07-18T21:59:36.482Z,3.30
2023-07-18T22:02:03.189Z,3.00
2023-07-18T22:04:29.681Z,3.30
2023-07-18T22:06:56.244Z,3.40
2023-07-18T22:09:22.703Z,3.80
2023-07-18T22:11:51.346Z,3.50
2023-07-18T22:14:18.420Z,3.90
2023-07-18T22:16:45.067Z,4.20
2023-07-18T22:19:11.636Z,4.10
2023-07-18T22:21:38.175Z,3.30
2023-07-18T22:24:04.951Z,2.50
2023-07-18T22:26:31.398Z,2.60
2023-07-18T22:28:57.836Z,3.10
2023-07-18T22:31:24.520Z,2.80
2023-07-18T22:33:51.160Z,2.60
2023-07-18T22:36:17.583Z,3.20
2023-07-18T22:38:44.477Z,3.10
2023-07-18T22:41:11.365Z,3.00
2023-07-18T22:43:37.860Z,3.90
2023-07-18T22:46:04.356Z,3.70
2023-07-18T22:48:31.100Z,3.20
2023-07-18T22:50:58.189Z,2.90
2023-07-18T22:53:24.729Z,3.20
2023-07-18T22:55:51.194Z,3.30
2023-07-18T22:58:17.938Z,2.90
2023-07-18T23:00:44.658Z,3.70
2023-07-18T23:03:11.553Z,3.00
2023-07-18T23:05:38.341Z,4.10
2023-07-18T23:08:04.886Z,3.30
2023-07-18T23:10:31.637Z,3.00
2023-07-18T23:12:58.937Z,2.80
2023-07-18T23:15:25.383Z,2.30
2023-07-18T23:17:51.775Z,2.20
2023-07-18T23:20:18.242Z,2.90
2023-07-18T23:22:44.690Z,2.10
2023-07-18T23:25:11.332Z,3.50
2023-07-18T23:27:37.770Z,3.30
2023-07-18T23:30:04.616Z,2.80
2023-07-18T23:32:31.005Z,3.10
2023-07-18T23:34:57.731Z,3.20
2023-07-18T23:37:24.210Z,2.80
2023-07-18T23:39:52.351Z,2.70
2023-07-18T23:42:18.815Z,2.90
2023-07-18T23:44:45.231Z,3.30
2023-07-18T23:47:11.712Z,3.00
2023-07-18T23:49:38.123Z,3.10
2023-07-18T23:52:04.689Z,3.10
2023-07-18T23:54:38.682Z,3.30
2023-07-18T23:57:05.434Z,3.50
2023-07-18T23:59:32.142Z,7.40
